Terminal Aerodrome Forecast
Issued by NWS

Home | Current Version | Previous Version | Text Only | Print | Product List | Glossary On
Versions: 1 2 3 4 5 6 7 8 9 10 11 12 13 14 15 16 17 18 19 20 21 22 23 24 25 26
113
FTUS42 KCAE 032035 AAA
TAFDNL
TAF AMD
KDNL 032035Z 0321/0418 05005KT P6SM BKN150
     FM040600 07003KT P6SM OVC040
     FM041500 07004KT 6SM -RA OVC035=

USA.gov is the U.S. government's official web portal to all federal, state and local government web resources and services.